Time,TemperatureF,DewpointF,PressureIn,WindDirection,WindDirectionDegrees,WindSpeedMPH,WindSpeedGustMPH,Humidity,HourlyPrecipIn,Conditions,Clouds,dailyrainin,SoftwareType,DateUTC
2013-11-30 00:01:00,32.1,26.0,30.33,SE,145,5.0,-999.0,77,-99.99,,,0.00,weatherlink.com 1.10,2013-11-30 06:01:00,
2013-11-30 00:16:00,32.0,26.0,30.33,SSE,148,4.0,-999.0,77,-99.99,,,0.00,weatherlink.com 1.10,2013-11-30 06:16:00,
2013-11-30 00:31:00,32.1,26.0,30.32,South,182,4.0,-999.0,78,-99.99,,,0.00,weatherlink.com 1.10,2013-11-30 06:31:00,
2013-11-30 00:47:00,32.4,26.0,30.31,SE,132,6.0,-999.0,77,-99.99,,,0.00,weatherlink.com 1.10,2013-11-30 06:47:00,
2013-11-30 01:02:00,32.2,26.0,30.31,SSE,148,0.0,-999.0,77,-99.99,,,0.00,weatherlink.com 1.10,2013-11-30 07:02:00,
2013-11-30 01:17:00,31.9,26.0,30.30,SE,140,0.0,-999.0,78,-99.99,,,0.00,weatherlink.com 1.10,2013-11-30 07:17:00,
2013-11-30 01:32:00,31.6,25.0,30.30,SSE,150,2.0,-999.0,78,-99.99,,,0.00,weatherlink.com 1.10,2013-11-30 07:32:00,
2013-11-30 01:47:00,31.4,26.0,30.29,SSE,150,1.0,-999.0,79,-99.99,,,0.00,weatherlink.com 1.10,2013-11-30 07:47:00,
2013-11-30 02:02:00,31.1,26.0,30.29,SE,146,4.0,-999.0,80,-99.99,,,0.00,weatherlink.com 1.10,2013-11-30 08:02:00,
2013-11-30 02:17:00,30.7,26.0,30.28,SE,140,2.0,-999.0,81,-99.99,,,0.00,weatherlink.com 1.10,2013-11-30 08:17:00,
2013-11-30 02:32:00,30.8,26.0,30.28,SSE,156,4.0,-999.0,81,-99.99,,,0.00,weatherlink.com 1.10,2013-11-30 08:32:00,
2013-11-30 02:47:00,30.8,26.0,30.27,SE,140,0.0,-999.0,81,-99.99,,,0.00,weatherlink.com 1.10,2013-11-30 08:47:00,
2013-11-30 03:02:00,30.8,26.0,30.27,SE,140,4.0,-999.0,81,-99.99,,,0.00,weatherlink.com 1.10,2013-11-30 09:02:00,
2013-11-30 03:17:00,30.4,26.0,30.26,SE,140,4.0,-999.0,82,-99.99,,,0.00,weatherlink.com 1.10,2013-11-30 09:17:00,
2013-11-30 03:33:00,30.2,26.0,30.25,SE,140,0.0,-999.0,83,-99.99,,,0.00,weatherlink.com 1.10,2013-11-30 09:33:00,
2013-11-30 03:48:00,30.4,26.0,30.25,SE,140,2.0,-999.0,82,-99.99,,,0.00,weatherlink.com 1.10,2013-11-30 09:48:00,
2013-11-30 04:03:00,29.9,25.0,30.25,SE,140,0.0,-999.0,82,-99.99,,,0.00,weatherlink.com 1.10,2013-11-30 10:03:00,
2013-11-30 04:18:00,29.8,25.0,30.24,SE,140,2.0,-999.0,83,-99.99,,,0.00,weatherlink.com 1.10,2013-11-30 10:18:00,
2013-11-30 04:33:00,30.3,26.0,30.24,SE,139,1.0,-999.0,84,-99.99,,,0.00,weatherlink.com 1.10,2013-11-30 10:33:00,
2013-11-30 04:48:00,31.2,27.0,30.24,SE,140,0.0,-999.0,83,-99.99,,,0.00,weatherlink.com 1.10,2013-11-30 10:48:00,
2013-11-30 05:03:00,31.8,27.0,30.23,South,171,1.0,-999.0,82,-99.99,,,0.00,weatherlink.com 1.10,2013-11-30 11:03:00,
2013-11-30 05:18:00,32.6,27.0,30.23,South,171,0.0,-999.0,80,-99.99,,,0.00,weatherlink.com 1.10,2013-11-30 11:18:00,
2013-11-30 05:33:00,32.4,27.0,30.22,SE,141,5.0,-999.0,80,-99.99,,,0.00,weatherlink.com 1.10,2013-11-30 11:33:00,
2013-11-30 05:48:00,32.1,27.0,30.22,South,169,0.0,-999.0,80,-99.99,,,0.00,weatherlink.com 1.10,2013-11-30 11:48:00,
2013-11-30 06:03:00,32.0,27.0,30.22,SSE,161,4.0,-999.0,80,-99.99,,,0.00,weatherlink.com 1.10,2013-11-30 12:03:00,
2013-11-30 06:19:00,32.0,27.0,30.22,South,170,2.0,-999.0,80,-99.99,,,0.00,weatherlink.com 1.10,2013-11-30 12:19:00,
2013-11-30 06:34:00,31.9,27.0,30.22,SSE,166,2.0,-999.0,81,-99.99,,,0.00,weatherlink.com 1.10,2013-11-30 12:34:00,
2013-11-30 06:49:00,32.9,27.0,30.21,South,175,5.0,-999.0,79,-99.99,,,0.00,weatherlink.com 1.10,2013-11-30 12:49:00,
2013-11-30 07:04:00,33.1,27.0,30.22,SW,221,4.0,-999.0,79,-99.99,,,0.00,weatherlink.com 1.10,2013-11-30 13:04:00,
2013-11-30 07:19:00,33.1,27.0,30.21,South,178,5.0,-999.0,79,-99.99,,,0.00,weatherlink.com 1.10,2013-11-30 13:19:00,
2013-11-30 07:34:00,33.1,28.0,30.21,South,188,6.0,-999.0,80,-99.99,,,0.00,weatherlink.com 1.10,2013-11-30 13:34:00,
2013-11-30 07:49:00,33.7,28.0,30.21,South,176,6.0,-999.0,79,-99.99,,,0.00,weatherlink.com 1.10,2013-11-30 13:49:00,
2013-11-30 08:04:00,34.7,28.0,30.21,SSW,213,9.0,-999.0,77,-99.99,,,0.00,weatherlink.com 1.10,2013-11-30 14:04:00,
2013-11-30 08:19:00,35.2,29.0,30.21,South,171,6.0,-999.0,77,-99.99,,,0.00,weatherlink.com 1.10,2013-11-30 14:19:00,
2013-11-30 08:34:00,35.9,29.0,30.21,SSW,199,6.0,-999.0,76,-99.99,,,0.00,weatherlink.com 1.10,2013-11-30 14:34:00,
2013-11-30 08:50:00,36.6,30.0,30.21,SW,226,6.0,-999.0,76,-99.99,,,0.00,weatherlink.com 1.10,2013-11-30 14:50:00,
2013-11-30 09:05:00,37.7,30.0,30.21,SSW,197,8.0,-999.0,74,-99.99,,,0.00,weatherlink.com 1.10,2013-11-30 15:05:00,
2013-11-30 09:20:00,38.7,30.0,30.21,SW,229,8.0,-999.0,72,-99.99,,,0.00,weatherlink.com 1.10,2013-11-30 15:20:00,
2013-11-30 09:35:00,39.8,31.0,30.21,SSW,205,7.0,-999.0,71,-99.99,,,0.00,weatherlink.com 1.10,2013-11-30 15:35:00,
2013-11-30 09:50:00,40.8,31.0,30.21,SW,229,6.0,-999.0,68,-99.99,,,0.00,weatherlink.com 1.10,2013-11-30 15:50:00,
2013-11-30 10:05:00,41.4,31.0,30.21,WSW,239,5.0,-999.0,67,-99.99,,,0.00,weatherlink.com 1.10,2013-11-30 16:05:00,
2013-11-30 10:20:00,42.0,32.0,30.21,WSW,242,8.0,-999.0,67,-99.99,,,0.00,weatherlink.com 1.10,2013-11-30 16:20:00,
2013-11-30 10:35:00,42.0,31.0,30.20,West,264,11.0,-999.0,66,-99.99,,,0.00,weatherlink.com 1.10,2013-11-30 16:35:00,
2013-11-30 10:50:00,43.2,32.0,30.20,WSW,243,5.0,-999.0,64,-99.99,,,0.00,weatherlink.com 1.10,2013-11-30 16:50:00,
2013-11-30 11:06:00,43.7,32.0,30.18,WSW,252,5.0,-999.0,63,-99.99,,,0.00,weatherlink.com 1.10,2013-11-30 17:06:00,
2013-11-30 11:21:00,44.7,32.0,30.18,WSW,240,5.0,-999.0,62,-99.99,,,0.00,weatherlink.com 1.10,2013-11-30 17:21:00,
2013-11-30 11:36:00,45.3,33.0,30.18,SSW,193,8.0,-999.0,62,-99.99,,,0.00,weatherlink.com 1.10,2013-11-30 17:36:00,
2013-11-30 11:51:00,46.2,33.0,30.17,SW,221,5.0,-999.0,60,-99.99,,,0.00,weatherlink.com 1.10,2013-11-30 17:51:00,
2013-11-30 12:06:00,46.4,33.0,30.16,SW,225,4.0,-999.0,59,-99.99,,,0.00,weatherlink.com 1.10,2013-11-30 18:06:00,
2013-11-30 12:21:00,46.6,33.0,30.16,WSW,257,6.0,-999.0,59,-99.99,,,0.00,weatherlink.com 1.10,2013-11-30 18:21:00,
2013-11-30 12:36:00,47.9,34.0,30.15,SSW,203,7.0,-999.0,58,-99.99,,,0.00,weatherlink.com 1.10,2013-11-30 18:36:00,
2013-11-30 12:51:00,48.0,34.0,30.14,WSW,251,3.0,-999.0,58,-99.99,,,0.00,weatherlink.com 1.10,2013-11-30 18:51:00,
2013-11-30 13:06:00,48.7,34.0,30.14,WSW,240,5.0,-999.0,57,-99.99,,,0.00,weatherlink.com 1.10,2013-11-30 19:06:00,
2013-11-30 13:22:00,49.5,34.0,30.14,WSW,238,5.0,-999.0,56,-99.99,,,0.00,weatherlink.com 1.10,2013-11-30 19:22:00,
2013-11-30 13:37:00,49.6,34.0,30.13,SW,227,6.0,-999.0,56,-99.99,,,0.00,weatherlink.com 1.10,2013-11-30 19:37:00,
2013-11-30 13:52:00,50.7,35.0,30.12,WSW,248,3.0,-999.0,55,-99.99,,,0.00,weatherlink.com 1.10,2013-11-30 19:52:00,
2013-11-30 14:07:00,50.4,35.0,30.12,WSW,242,2.0,-999.0,55,-99.99,,,0.00,weatherlink.com 1.10,2013-11-30 20:07:00,
2013-11-30 14:22:00,51.0,35.0,30.12,SW,221,7.0,-999.0,54,-99.99,,,0.00,weatherlink.com 1.10,2013-11-30 20:22:00,
2013-11-30 14:37:00,51.2,34.0,30.12,SW,234,4.0,-999.0,53,-99.99,,,0.00,weatherlink.com 1.10,2013-11-30 20:37:00,
2013-11-30 14:52:00,51.5,35.0,30.12,SW,235,3.0,-999.0,53,-99.99,,,0.00,weatherlink.com 1.10,2013-11-30 20:52:00,
2013-11-30 15:07:00,51.4,35.0,30.12,SW,232,2.0,-999.0,54,-99.99,,,0.00,weatherlink.com 1.10,2013-11-30 21:07:00,
2013-11-30 15:22:00,51.4,35.0,30.12,SW,227,5.0,-999.0,54,-99.99,,,0.00,weatherlink.com 1.10,2013-11-30 21:22:00,
2013-11-30 15:37:00,51.5,35.0,30.13,WSW,238,2.0,-999.0,54,-99.99,,,0.00,weatherlink.com 1.10,2013-11-30 21:37:00,
2013-11-30 15:52:00,51.5,35.0,30.13,West,275,1.0,-999.0,54,-99.99,,,0.00,weatherlink.com 1.10,2013-11-30 21:52:00,
2013-11-30 16:08:00,51.3,35.0,30.13,West,264,0.0,-999.0,54,-99.99,,,0.00,weatherlink.com 1.10,2013-11-30 22:08:00,
2013-11-30 16:23:00,50.4,35.0,30.13,West,264,0.0,-999.0,55,-99.99,,,0.00,weatherlink.com 1.10,2013-11-30 22:23:00,
2013-11-30 16:38:00,49.0,35.0,30.13,West,264,0.0,-999.0,58,-99.99,,,0.00,weatherlink.com 1.10,2013-11-30 22:38:00,
2013-11-30 16:53:00,48.1,34.0,30.13,West,264,0.0,-999.0,59,-99.99,,,0.00,weatherlink.com 1.10,2013-11-30 22:53:00,
2013-11-30 17:08:00,47.3,34.0,30.13,West,264,0.0,-999.0,61,-99.99,,,0.00,weatherlink.com 1.10,2013-11-30 23:08:00,
2013-11-30 17:23:00,46.8,34.0,30.14,West,264,0.0,-999.0,62,-99.99,,,0.00,weatherlink.com 1.10,2013-11-30 23:23:00,
2013-11-30 17:38:00,46.5,34.0,30.14,West,264,0.0,-999.0,63,-99.99,,,0.00,weatherlink.com 1.10,2013-11-30 23:38:00,
2013-11-30 17:53:00,46.0,34.0,30.15,West,264,0.0,-999.0,64,-99.99,,,0.00,weatherlink.com 1.10,2013-11-30 23:53:00,
2013-11-30 18:08:00,45.4,34.0,30.15,West,264,0.0,-999.0,65,-99.99,,,0.00,weatherlink.com 1.10,2013-12-01 00:08:00,
2013-11-30 18:23:00,45.2,34.0,30.15,West,264,0.0,-999.0,66,-99.99,,,0.00,weatherlink.com 1.10,2013-12-01 00:23:00,
2013-11-30 18:38:00,44.8,33.0,30.15,West,264,0.0,-999.0,64,-99.99,,,0.00,weatherlink.com 1.10,2013-12-01 00:38:00,
2013-11-30 18:53:00,42.7,33.0,30.16,West,264,0.0,-999.0,69,-99.99,,,0.00,weatherlink.com 1.10,2013-12-01 00:53:00,
2013-11-30 19:08:00,41.3,33.0,30.16,West,264,0.0,-999.0,73,-99.99,,,0.00,weatherlink.com 1.10,2013-12-01 01:08:00,
2013-11-30 19:23:00,40.8,33.0,30.16,West,264,0.0,-999.0,75,-99.99,,,0.00,weatherlink.com 1.10,2013-12-01 01:23:00,
2013-11-30 19:39:00,41.5,33.0,30.16,West,264,0.0,-999.0,73,-99.99,,,0.00,weatherlink.com 1.10,2013-12-01 01:39:00,
2013-11-30 19:54:00,41.4,33.0,30.16,West,264,0.0,-999.0,73,-99.99,,,0.00,weatherlink.com 1.10,2013-12-01 01:54:00,
2013-11-30 20:09:00,40.9,33.0,30.15,West,264,0.0,-999.0,74,-99.99,,,0.00,weatherlink.com 1.10,2013-12-01 02:09:00,
2013-11-30 20:24:00,40.2,33.0,30.15,West,264,0.0,-999.0,75,-99.99,,,0.00,weatherlink.com 1.10,2013-12-01 02:24:00,
2013-11-30 20:39:00,40.1,33.0,30.16,West,264,0.0,-999.0,75,-99.99,,,0.00,weatherlink.com 1.10,2013-12-01 02:39:00,
2013-11-30 20:54:00,39.5,32.0,30.16,West,264,0.0,-999.0,75,-99.99,,,0.00,weatherlink.com 1.10,2013-12-01 02:54:00,
2013-11-30 21:09:00,38.0,32.0,30.16,West,264,0.0,-999.0,78,-99.99,,,0.00,weatherlink.com 1.10,2013-12-01 03:09:00,
2013-11-30 21:24:00,37.9,32.0,30.16,West,264,0.0,-999.0,80,-99.99,,,0.00,weatherlink.com 1.10,2013-12-01 03:24:00,
2013-11-30 21:39:00,38.1,32.0,30.16,West,264,0.0,-999.0,79,-99.99,,,0.00,weatherlink.com 1.10,2013-12-01 03:39:00,
2013-11-30 21:54:00,37.9,32.0,30.16,West,264,0.0,-999.0,80,-99.99,,,0.00,weatherlink.com 1.10,2013-12-01 03:54:00,
2013-11-30 22:09:00,37.1,31.0,30.17,West,264,0.0,-999.0,79,-99.99,,,0.00,weatherlink.com 1.10,2013-12-01 04:09:00,
2013-11-30 22:24:00,35.4,30.0,30.17,West,264,0.0,-999.0,81,-99.99,,,0.00,weatherlink.com 1.10,2013-12-01 04:24:00,
2013-11-30 22:39:00,34.1,30.0,30.17,West,264,0.0,-999.0,84,-99.99,,,0.00,weatherlink.com 1.10,2013-12-01 04:39:00,
2013-11-30 22:55:00,33.7,29.0,30.17,West,264,0.0,-999.0,84,-99.99,,,0.00,weatherlink.com 1.10,2013-12-01 04:55:00,
2013-11-30 23:10:00,33.8,30.0,30.18,West,264,0.0,-999.0,86,-99.99,,,0.00,weatherlink.com 1.10,2013-12-01 05:10:00,
2013-11-30 23:25:00,33.3,29.0,30.18,West,264,0.0,-999.0,85,-99.99,,,0.00,weatherlink.com 1.10,2013-12-01 05:25:00,
2013-11-30 23:40:00,33.3,30.0,30.18,West,264,0.0,-999.0,88,-99.99,,,0.00,weatherlink.com 1.10,2013-12-01 05:40:00,
2013-11-30 23:55:00,33.1,30.0,30.18,West,264,0.0,-999.0,87,-99.99,,,0.00,weatherlink.com 1.10,2013-12-01 05:55:00,